sensor_id;sensor_type;location;lat;lon;timestamp;P1;durP1;ratioP1;P2;durP2;ratioP2
75634;SDS011;64227;48.724;9.104;2023-04-01T00:00:29;2.42;;;0.47;;
75634;SDS011;64227;48.724;9.104;2023-04-01T00:02:54;0.40;;;0.38;;
75634;SDS011;64227;48.724;9.104;2023-04-01T00:05:20;2.08;;;0.73;;
75634;SDS011;64227;48.724;9.104;2023-04-01T00:07:46;0.40;;;0.30;;
75634;SDS011;64227;48.724;9.104;2023-04-01T00:10:12;2.83;;;0.32;;
75634;SDS011;64227;48.724;9.104;2023-04-01T00:12:38;0.88;;;0.40;;
75634;SDS011;64227;48.724;9.104;2023-04-01T00:15:04;1.33;;;0.30;;
75634;SDS011;64227;48.724;9.104;2023-04-01T00:17:31;1.77;;;0.30;;
75634;SDS011;64227;48.724;9.104;2023-04-01T00:19:56;2.95;;;0.35;;
75634;SDS011;64227;48.724;9.104;2023-04-01T00:22:22;2.00;;;0.60;;
75634;SDS011;64227;48.724;9.104;2023-04-01T00:24:48;1.35;;;0.20;;
75634;SDS011;64227;48.724;9.104;2023-04-01T00:27:14;0.20;;;0.10;;
75634;SDS011;64227;48.724;9.104;2023-04-01T00:29:44;2.63;;;0.38;;
75634;SDS011;64227;48.724;9.104;2023-04-01T00:32:10;0.77;;;0.32;;
75634;SDS011;64227;48.724;9.104;2023-04-01T00:34:35;2.17;;;0.40;;
75634;SDS011;64227;48.724;9.104;2023-04-01T00:37:01;1.33;;;0.30;;
75634;SDS011;64227;48.724;9.104;2023-04-01T00:39:30;1.52;;;0.63;;
75634;SDS011;64227;48.724;9.104;2023-04-01T00:44:26;1.50;;;0.38;;
75634;SDS011;64227;48.724;9.104;2023-04-01T00:46:52;3.90;;;0.40;;
75634;SDS011;64227;48.724;9.104;2023-04-01T00:49:18;1.50;;;0.35;;
75634;SDS011;64227;48.724;9.104;2023-04-01T00:51:47;1.88;;;0.40;;
75634;SDS011;64227;48.724;9.104;2023-04-01T00:54:14;0.93;;;0.30;;
75634;SDS011;64227;48.724;9.104;2023-04-01T00:57:03;2.55;;;0.40;;
75634;SDS011;64227;48.724;9.104;2023-04-01T00:59:29;2.72;;;0.32;;
75634;SDS011;64227;48.724;9.104;2023-04-01T01:01:55;2.33;;;0.50;;
75634;SDS011;64227;48.724;9.104;2023-04-01T01:04:25;1.08;;;0.45;;
75634;SDS011;64227;48.724;9.104;2023-04-01T01:09:49;0.77;;;0.30;;
75634;SDS011;64227;48.724;9.104;2023-04-01T01:20:53;1.02;;;0.22;;
75634;SDS011;64227;48.724;9.104;2023-04-01T01:32:15;2.90;;;0.38;;
75634;SDS011;64227;48.724;9.104;2023-04-01T01:34:55;1.50;;;0.30;;
75634;SDS011;64227;48.724;9.104;2023-04-01T01:37:30;1.40;;;0.25;;
75634;SDS011;64227;48.724;9.104;2023-04-01T01:39:58;1.23;;;0.32;;
75634;SDS011;64227;48.724;9.104;2023-04-01T01:42:26;0.82;;;0.20;;
75634;SDS011;64227;48.724;9.104;2023-04-01T01:44:52;1.13;;;0.20;;
75634;SDS011;64227;48.724;9.104;2023-04-01T01:47:19;2.63;;;0.30;;
75634;SDS011;64227;48.724;9.104;2023-04-01T01:49:45;1.98;;;0.20;;
75634;SDS011;64227;48.724;9.104;2023-04-01T01:52:12;1.10;;;0.30;;
75634;SDS011;64227;48.724;9.104;2023-04-01T01:54:50;0.40;;;0.20;;
75634;SDS011;64227;48.724;9.104;2023-04-01T01:57:18;0.63;;;0.40;;
75634;SDS011;64227;48.724;9.104;2023-04-01T01:59:48;0.50;;;0.20;;
75634;SDS011;64227;48.724;9.104;2023-04-01T02:02:13;2.78;;;0.30;;
75634;SDS011;64227;48.724;9.104;2023-04-01T02:04:40;2.33;;;0.40;;
75634;SDS011;64227;48.724;9.104;2023-04-01T02:07:08;0.20;;;0.15;;
75634;SDS011;64227;48.724;9.104;2023-04-01T02:09:37;2.50;;;0.32;;
75634;SDS011;64227;48.724;9.104;2023-04-01T02:12:03;1.80;;;0.30;;
75634;SDS011;64227;48.724;9.104;2023-04-01T02:14:35;1.85;;;0.20;;
75634;SDS011;64227;48.724;9.104;2023-04-01T02:17:23;2.10;;;0.20;;
75634;SDS011;64227;48.724;9.104;2023-04-01T02:22:25;1.92;;;0.20;;
75634;SDS011;64227;48.724;9.104;2023-04-01T02:24:57;1.58;;;0.10;;
75634;SDS011;64227;48.724;9.104;2023-04-01T02:27:25;0.98;;;0.30;;
75634;SDS011;64227;48.724;9.104;2023-04-01T02:29:50;1.52;;;0.20;;
75634;SDS011;64227;48.724;9.104;2023-04-01T02:32:16;0.25;;;0.10;;
75634;SDS011;64227;48.724;9.104;2023-04-01T02:34:42;0.85;;;0.20;;
75634;SDS011;64227;48.724;9.104;2023-04-01T02:37:08;0.60;;;0.10;;
75634;SDS011;64227;48.724;9.104;2023-04-01T02:39:33;0.68;;;0.17;;
75634;SDS011;64227;48.724;9.104;2023-04-01T02:41:58;0.20;;;0.20;;
75634;SDS011;64227;48.724;9.104;2023-04-01T02:44:24;1.23;;;0.22;;
75634;SDS011;64227;48.724;9.104;2023-04-01T02:46:50;0.25;;;0.10;;
75634;SDS011;64227;48.724;9.104;2023-04-01T02:49:15;0.88;;;0.10;;
75634;SDS011;64227;48.724;9.104;2023-04-01T02:51:40;1.08;;;0.10;;
75634;SDS011;64227;48.724;9.104;2023-04-01T02:54:05;1.13;;;0.20;;
75634;SDS011;64227;48.724;9.104;2023-04-01T02:56:31;0.10;;;0.08;;
75634;SDS011;64227;48.724;9.104;2023-04-01T02:58:56;1.08;;;0.20;;
75634;SDS011;64227;48.724;9.104;2023-04-01T03:01:22;0.00;;;0.00;;
75634;SDS011;64227;48.724;9.104;2023-04-01T03:03:47;0.15;;;0.15;;
75634;SDS011;64227;48.724;9.104;2023-04-01T03:06:13;0.43;;;0.10;;
75634;SDS011;64227;48.724;9.104;2023-04-01T03:08:40;0.80;;;0.22;;
75634;SDS011;64227;48.724;9.104;2023-04-01T03:11:06;0.10;;;0.10;;
75634;SDS011;64227;48.724;9.104;2023-04-01T03:13:31;2.97;;;0.47;;
75634;SDS011;64227;48.724;9.104;2023-04-01T03:15:57;0.15;;;0.10;;
75634;SDS011;64227;48.724;9.104;2023-04-01T03:18:22;1.38;;;0.20;;
75634;SDS011;64227;48.724;9.104;2023-04-01T03:20:47;0.77;;;0.20;;
75634;SDS011;64227;48.724;9.104;2023-04-01T03:23:13;0.17;;;0.08;;
75634;SDS011;64227;48.724;9.104;2023-04-01T03:25:38;0.40;;;0.10;;
75634;SDS011;64227;48.724;9.104;2023-04-01T03:28:04;1.45;;;0.10;;
75634;SDS011;64227;48.724;9.104;2023-04-01T03:30:29;0.10;;;0.10;;
75634;SDS011;64227;48.724;9.104;2023-04-01T03:32:56;0.05;;;0.00;;
75634;SDS011;64227;48.724;9.104;2023-04-01T03:35:25;0.70;;;0.13;;
75634;SDS011;64227;48.724;9.104;2023-04-01T03:37:51;1.27;;;0.10;;
75634;SDS011;64227;48.724;9.104;2023-04-01T03:40:17;0.55;;;0.10;;
75634;SDS011;64227;48.724;9.104;2023-04-01T03:42:42;0.55;;;0.10;;
75634;SDS011;64227;48.724;9.104;2023-04-01T03:45:07;0.30;;;0.10;;
75634;SDS011;64227;48.724;9.104;2023-04-01T03:47:34;0.13;;;0.10;;
75634;SDS011;64227;48.724;9.104;2023-04-01T03:49:59;0.43;;;0.10;;
75634;SDS011;64227;48.724;9.104;2023-04-01T03:52:24;0.60;;;0.10;;
75634;SDS011;64227;48.724;9.104;2023-04-01T03:54:50;0.88;;;0.20;;
75634;SDS011;64227;48.724;9.104;2023-04-01T03:57:15;0.97;;;0.00;;
75634;SDS011;64227;48.724;9.104;2023-04-01T03:59:40;0.25;;;0.10;;
75634;SDS011;64227;48.724;9.104;2023-04-01T04:02:05;0.60;;;0.10;;
75634;SDS011;64227;48.724;9.104;2023-04-01T04:04:31;1.73;;;0.30;;
75634;SDS011;64227;48.724;9.104;2023-04-01T04:06:57;0.77;;;0.10;;
75634;SDS011;64227;48.724;9.104;2023-04-01T04:09:22;1.27;;;0.10;;
75634;SDS011;64227;48.724;9.104;2023-04-01T04:11:48;1.15;;;0.10;;
75634;SDS011;64227;48.724;9.104;2023-04-01T04:14:13;0.80;;;0.40;;
75634;SDS011;64227;48.724;9.104;2023-04-01T04:16:39;0.32;;;0.10;;
75634;SDS011;64227;48.724;9.104;2023-04-01T04:19:04;0.20;;;0.15;;
75634;SDS011;64227;48.724;9.104;2023-04-01T04:21:30;1.75;;;0.40;;
75634;SDS011;64227;48.724;9.104;2023-04-01T04:23:55;3.75;;;0.55;;
75634;SDS011;64227;48.724;9.104;2023-04-01T04:26:21;0.10;;;0.10;;
75634;SDS011;64227;48.724;9.104;2023-04-01T04:28:46;0.10;;;0.10;;
75634;SDS011;64227;48.724;9.104;2023-04-01T04:31:11;0.10;;;0.10;;
75634;SDS011;64227;48.724;9.104;2023-04-01T04:33:37;0.30;;;0.10;;
75634;SDS011;64227;48.724;9.104;2023-04-01T04:36:03;0.10;;;0.10;;
75634;SDS011;64227;48.724;9.104;2023-04-01T04:38:29;0.00;;;0.00;;
75634;SDS011;64227;48.724;9.104;2023-04-01T04:40:54;1.00;;;0.25;;
75634;SDS011;64227;48.724;9.104;2023-04-01T04:43:20;0.10;;;0.10;;
75634;SDS011;64227;48.724;9.104;2023-04-01T04:45:45;0.68;;;0.20;;
75634;SDS011;64227;48.724;9.104;2023-04-01T04:48:11;0.75;;;0.20;;
75634;SDS011;64227;48.724;9.104;2023-04-01T04:50:45;0.45;;;0.20;;
75634;SDS011;64227;48.724;9.104;2023-04-01T04:53:15;3.85;;;0.35;;
75634;SDS011;64227;48.724;9.104;2023-04-01T04:55:44;2.25;;;0.22;;
75634;SDS011;64227;48.724;9.104;2023-04-01T04:58:10;2.28;;;0.10;;
75634;SDS011;64227;48.724;9.104;2023-04-01T05:00:35;0.52;;;0.10;;
75634;SDS011;64227;48.724;9.104;2023-04-01T05:03:01;0.32;;;0.20;;
75634;SDS011;64227;48.724;9.104;2023-04-01T05:05:26;3.72;;;0.30;;
75634;SDS011;64227;48.724;9.104;2023-04-01T05:07:51;0.87;;;0.40;;
75634;SDS011;64227;48.724;9.104;2023-04-01T05:10:17;0.70;;;0.32;;
75634;SDS011;64227;48.724;9.104;2023-04-01T05:12:42;1.25;;;0.25;;
75634;SDS011;64227;48.724;9.104;2023-04-01T05:15:07;1.23;;;0.30;;
75634;SDS011;64227;48.724;9.104;2023-04-01T05:17:33;1.70;;;0.32;;
75634;SDS011;64227;48.724;9.104;2023-04-01T05:19:58;0.20;;;0.10;;
75634;SDS011;64227;48.724;9.104;2023-04-01T05:22:24;1.02;;;0.30;;
75634;SDS011;64227;48.724;9.104;2023-04-01T05:24:49;3.92;;;0.30;;
75634;SDS011;64227;48.724;9.104;2023-04-01T05:27:14;1.73;;;0.30;;
75634;SDS011;64227;48.724;9.104;2023-04-01T05:29:40;3.33;;;0.30;;
75634;SDS011;64227;48.724;9.104;2023-04-01T05:32:05;0.47;;;0.10;;
75634;SDS011;64227;48.724;9.104;2023-04-01T05:34:30;2.53;;;0.47;;
75634;SDS011;64227;48.724;9.104;2023-04-01T05:36:56;3.30;;;0.40;;
75634;SDS011;64227;48.724;9.104;2023-04-01T05:39:21;2.47;;;0.15;;
75634;SDS011;64227;48.724;9.104;2023-04-01T05:41:46;1.17;;;0.30;;
75634;SDS011;64227;48.724;9.104;2023-04-01T05:44:12;0.80;;;0.45;;
75634;SDS011;64227;48.724;9.104;2023-04-01T05:46:37;1.77;;;0.40;;
75634;SDS011;64227;48.724;9.104;2023-04-01T05:49:03;2.37;;;0.33;;
75634;SDS011;64227;48.724;9.104;2023-04-01T05:51:28;2.10;;;0.50;;
75634;SDS011;64227;48.724;9.104;2023-04-01T05:53:53;2.05;;;0.30;;
75634;SDS011;64227;48.724;9.104;2023-04-01T05:56:19;1.15;;;0.20;;
75634;SDS011;64227;48.724;9.104;2023-04-01T05:58:46;0.28;;;0.13;;
75634;SDS011;64227;48.724;9.104;2023-04-01T06:01:15;0.77;;;0.20;;
75634;SDS011;64227;48.724;9.104;2023-04-01T06:03:40;1.10;;;0.10;;
75634;SDS011;64227;48.724;9.104;2023-04-01T06:06:09;2.05;;;0.20;;
75634;SDS011;64227;48.724;9.104;2023-04-01T06:08:39;1.58;;;0.40;;
75634;SDS011;64227;48.724;9.104;2023-04-01T06:11:10;0.95;;;0.22;;
75634;SDS011;64227;48.724;9.104;2023-04-01T06:14:04;2.47;;;0.40;;
75634;SDS011;64227;48.724;9.104;2023-04-01T06:27:27;0.93;;;0.28;;
75634;SDS011;64227;48.724;9.104;2023-04-01T06:35:31;0.35;;;0.10;;
75634;SDS011;64227;48.724;9.104;2023-04-01T06:49:41;2.47;;;0.25;;
75634;SDS011;64227;48.724;9.104;2023-04-01T06:52:31;2.20;;;0.28;;
75634;SDS011;64227;48.724;9.104;2023-04-01T06:54:58;0.40;;;0.15;;
75634;SDS011;64227;48.724;9.104;2023-04-01T06:57:33;3.08;;;0.20;;
75634;SDS011;64227;48.724;9.104;2023-04-01T07:00:00;0.73;;;0.20;;
75634;SDS011;64227;48.724;9.104;2023-04-01T07:02:38;0.10;;;0.10;;
75634;SDS011;64227;48.724;9.104;2023-04-01T07:05:14;1.23;;;0.30;;
75634;SDS011;64227;48.724;9.104;2023-04-01T07:07:44;0.65;;;0.20;;
75634;SDS011;64227;48.724;9.104;2023-04-01T07:10:13;0.32;;;0.10;;
75634;SDS011;64227;48.724;9.104;2023-04-01T07:12:53;0.75;;;0.20;;
75634;SDS011;64227;48.724;9.104;2023-04-01T07:15:21;0.25;;;0.10;;
75634;SDS011;64227;48.724;9.104;2023-04-01T07:17:53;0.38;;;0.10;;
75634;SDS011;64227;48.724;9.104;2023-04-01T07:20:30;0.70;;;0.10;;
75634;SDS011;64227;48.724;9.104;2023-04-01T07:23:02;2.45;;;0.70;;
75634;SDS011;64227;48.724;9.104;2023-04-01T07:25:30;1.00;;;0.20;;
75634;SDS011;64227;48.724;9.104;2023-04-01T07:28:05;1.20;;;0.20;;
75634;SDS011;64227;48.724;9.104;2023-04-01T07:30:41;1.85;;;0.15;;
75634;SDS011;64227;48.724;9.104;2023-04-01T07:38:53;1.48;;;0.20;;
75634;SDS011;64227;48.724;9.104;2023-04-01T07:41:26;0.38;;;0.10;;
75634;SDS011;64227;48.724;9.104;2023-04-01T07:44:04;0.68;;;0.20;;
75634;SDS011;64227;48.724;9.104;2023-04-01T07:52:24;1.05;;;0.20;;
75634;SDS011;64227;48.724;9.104;2023-04-01T07:55:00;1.55;;;0.20;;
75634;SDS011;64227;48.724;9.104;2023-04-01T08:03:10;0.30;;;0.15;;
75634;SDS011;64227;48.724;9.104;2023-04-01T08:06:08;1.58;;;0.32;;
75634;SDS011;64227;48.724;9.104;2023-04-01T08:16:56;0.55;;;0.15;;
75634;SDS011;64227;48.724;9.104;2023-04-01T08:19:41;1.05;;;0.20;;
75634;SDS011;64227;48.724;9.104;2023-04-01T08:22:16;0.10;;;0.10;;
75634;SDS011;64227;48.724;9.104;2023-04-01T08:24:46;1.55;;;0.20;;
75634;SDS011;64227;48.724;9.104;2023-04-01T08:27:20;0.35;;;0.10;;
75634;SDS011;64227;48.724;9.104;2023-04-01T08:30:04;1.13;;;0.20;;
75634;SDS011;64227;48.724;9.104;2023-04-01T08:32:35;0.45;;;0.05;;
75634;SDS011;64227;48.724;9.104;2023-04-01T08:35:11;0.30;;;0.10;;
75634;SDS011;64227;48.724;9.104;2023-04-01T08:37:41;0.25;;;0.10;;
75634;SDS011;64227;48.724;9.104;2023-04-01T08:42:53;1.25;;;0.10;;
75634;SDS011;64227;48.724;9.104;2023-04-01T09:06:59;2.17;;;0.30;;
75634;SDS011;64227;48.724;9.104;2023-04-01T09:32:34;0.30;;;0.20;;
75634;SDS011;64227;48.724;9.104;2023-04-01T09:45:53;0.70;;;0.10;;
75634;SDS011;64227;48.724;9.104;2023-04-01T09:51:35;0.20;;;0.00;;
75634;SDS011;64227;48.724;9.104;2023-04-01T09:59:40;0.15;;;0.10;;
75634;SDS011;64227;48.724;9.104;2023-04-01T10:02:28;0.10;;;0.05;;
75634;SDS011;64227;48.724;9.104;2023-04-01T10:22:43;0.10;;;0.05;;
75634;SDS011;64227;48.724;9.104;2023-04-01T10:25:33;0.10;;;0.10;;
75634;SDS011;64227;48.724;9.104;2023-04-01T10:31:08;1.38;;;0.17;;
75634;SDS011;64227;48.724;9.104;2023-04-01T10:41:58;0.10;;;0.10;;
75634;SDS011;64227;48.724;9.104;2023-04-01T10:48:01;0.10;;;0.05;;
75634;SDS011;64227;48.724;9.104;2023-04-01T10:50:42;0.15;;;0.00;;
75634;SDS011;64227;48.724;9.104;2023-04-01T11:20:36;0.10;;;0.00;;
75634;SDS011;64227;48.724;9.104;2023-04-01T11:26:07;0.00;;;0.00;;
75634;SDS011;64227;48.724;9.104;2023-04-01T11:28:54;0.40;;;0.10;;
75634;SDS011;64227;48.724;9.104;2023-04-01T11:31:43;0.00;;;0.00;;
75634;SDS011;64227;48.724;9.104;2023-04-01T11:36:48;0.10;;;0.10;;
75634;SDS011;64227;48.724;9.104;2023-04-01T11:39:29;0.15;;;0.15;;
75634;SDS011;64227;48.724;9.104;2023-04-01T11:42:17;1.60;;;0.00;;
75634;SDS011;64227;48.724;9.104;2023-04-01T11:50:27;0.10;;;0.10;;
75634;SDS011;64227;48.724;9.104;2023-04-01T11:59:10;0.10;;;0.05;;
75634;SDS011;64227;48.724;9.104;2023-04-01T12:01:44;0.00;;;0.00;;
75634;SDS011;64227;48.724;9.104;2023-04-01T12:07:25;0.03;;;0.03;;
75634;SDS011;64227;48.724;9.104;2023-04-01T12:20:50;0.13;;;0.13;;
75634;SDS011;64227;48.724;9.104;2023-04-01T12:28:54;0.10;;;0.10;;
75634;SDS011;64227;48.724;9.104;2023-04-01T12:34:54;0.10;;;0.10;;
75634;SDS011;64227;48.724;9.104;2023-04-01T12:40:02;0.20;;;0.20;;
75634;SDS011;64227;48.724;9.104;2023-04-01T12:48:16;0.45;;;0.45;;
75634;SDS011;64227;48.724;9.104;2023-04-01T12:50:58;0.15;;;0.10;;
75634;SDS011;64227;48.724;9.104;2023-04-01T12:56:21;0.05;;;0.05;;
75634;SDS011;64227;48.724;9.104;2023-04-01T13:10:06;0.10;;;0.10;;
75634;SDS011;64227;48.724;9.104;2023-04-01T13:15:31;0.10;;;0.10;;
75634;SDS011;64227;48.724;9.104;2023-04-01T13:29:11;0.08;;;0.00;;
75634;SDS011;64227;48.724;9.104;2023-04-01T13:31:48;0.13;;;0.05;;
75634;SDS011;64227;48.724;9.104;2023-04-01T13:40:02;0.10;;;0.10;;
75634;SDS011;64227;48.724;9.104;2023-04-01T13:42:49;0.25;;;0.10;;
75634;SDS011;64227;48.724;9.104;2023-04-01T13:45:21;0.08;;;0.00;;
75634;SDS011;64227;48.724;9.104;2023-04-01T14:10:57;0.28;;;0.17;;
75634;SDS011;64227;48.724;9.104;2023-04-01T14:16:29;0.30;;;0.20;;
75634;SDS011;64227;48.724;9.104;2023-04-01T14:22:26;0.10;;;0.10;;
75634;SDS011;64227;48.724;9.104;2023-04-01T14:33:31;0.20;;;0.10;;
75634;SDS011;64227;48.724;9.104;2023-04-01T14:41:38;0.73;;;0.00;;
75634;SDS011;64227;48.724;9.104;2023-04-01T14:49:37;0.15;;;0.15;;
75634;SDS011;64227;48.724;9.104;2023-04-01T14:52:08;0.10;;;0.10;;
75634;SDS011;64227;48.724;9.104;2023-04-01T14:55:19;0.10;;;0.10;;
75634;SDS011;64227;48.724;9.104;2023-04-01T14:57:58;0.75;;;0.10;;
75634;SDS011;64227;48.724;9.104;2023-04-01T15:00:37;0.10;;;0.10;;
75634;SDS011;64227;48.724;9.104;2023-04-01T15:03:14;0.10;;;0.10;;
75634;SDS011;64227;48.724;9.104;2023-04-01T15:17:26;0.10;;;0.10;;
75634;SDS011;64227;48.724;9.104;2023-04-01T15:20:12;0.20;;;0.20;;
75634;SDS011;64227;48.724;9.104;2023-04-01T15:28:16;0.10;;;0.10;;
75634;SDS011;64227;48.724;9.104;2023-04-01T15:30:49;0.10;;;0.10;;
75634;SDS011;64227;48.724;9.104;2023-04-01T15:33:25;0.30;;;0.10;;
75634;SDS011;64227;48.724;9.104;2023-04-01T15:38:56;0.35;;;0.13;;
75634;SDS011;64227;48.724;9.104;2023-04-01T15:41:40;0.20;;;0.20;;
75634;SDS011;64227;48.724;9.104;2023-04-01T15:44:26;0.65;;;0.10;;
75634;SDS011;64227;48.724;9.104;2023-04-01T15:47:05;0.15;;;0.15;;
75634;SDS011;64227;48.724;9.104;2023-04-01T15:49:53;0.00;;;0.00;;
75634;SDS011;64227;48.724;9.104;2023-04-01T15:52:37;0.28;;;0.25;;
75634;SDS011;64227;48.724;9.104;2023-04-01T16:01:10;0.22;;;0.20;;
75634;SDS011;64227;48.724;9.104;2023-04-01T16:03:46;0.50;;;0.22;;
75634;SDS011;64227;48.724;9.104;2023-04-01T16:09:06;0.20;;;0.20;;
75634;SDS011;64227;48.724;9.104;2023-04-01T16:11:45;0.10;;;0.10;;
75634;SDS011;64227;48.724;9.104;2023-04-01T16:14:17;0.17;;;0.10;;
75634;SDS011;64227;48.724;9.104;2023-04-01T16:25:07;1.23;;;0.20;;
75634;SDS011;64227;48.724;9.104;2023-04-01T16:28:03;1.35;;;1.25;;
75634;SDS011;64227;48.724;9.104;2023-04-01T16:30:37;1.25;;;0.90;;
75634;SDS011;64227;48.724;9.104;2023-04-01T16:39:08;0.40;;;0.40;;
75634;SDS011;64227;48.724;9.104;2023-04-01T16:44:31;1.33;;;0.47;;
75634;SDS011;64227;48.724;9.104;2023-04-01T16:47:12;0.30;;;0.30;;
75634;SDS011;64227;48.724;9.104;2023-04-01T16:49:42;0.47;;;0.30;;
75634;SDS011;64227;48.724;9.104;2023-04-01T16:54:44;0.30;;;0.30;;
75634;SDS011;64227;48.724;9.104;2023-04-01T16:57:45;0.30;;;0.20;;
75634;SDS011;64227;48.724;9.104;2023-04-01T17:00:15;0.30;;;0.30;;
75634;SDS011;64227;48.724;9.104;2023-04-01T17:02:57;0.70;;;0.50;;
75634;SDS011;64227;48.724;9.104;2023-04-01T17:11:14;1.20;;;0.30;;
75634;SDS011;64227;48.724;9.104;2023-04-01T17:19:14;1.17;;;0.40;;
75634;SDS011;64227;48.724;9.104;2023-04-01T17:24:47;0.98;;;0.47;;
75634;SDS011;64227;48.724;9.104;2023-04-01T17:35:16;0.77;;;0.60;;
75634;SDS011;64227;48.724;9.104;2023-04-01T17:43:41;0.93;;;0.40;;
75634;SDS011;64227;48.724;9.104;2023-04-01T17:51:46;1.50;;;0.20;;
75634;SDS011;64227;48.724;9.104;2023-04-01T17:54:16;0.98;;;0.32;;
75634;SDS011;64227;48.724;9.104;2023-04-01T18:02:42;1.77;;;0.90;;
75634;SDS011;64227;48.724;9.104;2023-04-01T18:05:24;1.45;;;0.60;;
75634;SDS011;64227;48.724;9.104;2023-04-01T18:11:12;0.22;;;0.22;;
75634;SDS011;64227;48.724;9.104;2023-04-01T18:22:36;0.60;;;0.60;;
75634;SDS011;64227;48.724;9.104;2023-04-01T18:25:19;0.63;;;0.30;;
75634;SDS011;64227;48.724;9.104;2023-04-01T18:27:52;0.60;;;0.40;;
75634;SDS011;64227;48.724;9.104;2023-04-01T18:30:28;0.57;;;0.20;;
75634;SDS011;64227;48.724;9.104;2023-04-01T18:33:41;0.73;;;0.20;;
75634;SDS011;64227;48.724;9.104;2023-04-01T18:35:47;0.73;;;0.63;;
75634;SDS011;64227;48.724;9.104;2023-04-01T18:38:26;0.38;;;0.35;;
75634;SDS011;64227;48.724;9.104;2023-04-01T18:46:27;0.20;;;0.20;;
75634;SDS011;64227;48.724;9.104;2023-04-01T18:49:16;0.20;;;0.20;;
75634;SDS011;64227;48.724;9.104;2023-04-01T18:52:09;2.45;;;0.30;;
75634;SDS011;64227;48.724;9.104;2023-04-01T18:54:33;0.60;;;0.50;;
75634;SDS011;64227;48.724;9.104;2023-04-01T18:57:12;0.20;;;0.20;;
75634;SDS011;64227;48.724;9.104;2023-04-01T18:59:45;0.45;;;0.30;;
75634;SDS011;64227;48.724;9.104;2023-04-01T19:02:20;1.95;;;0.50;;
75634;SDS011;64227;48.724;9.104;2023-04-01T19:04:50;1.20;;;0.28;;
75634;SDS011;64227;48.724;9.104;2023-04-01T19:07:40;1.13;;;0.25;;
75634;SDS011;64227;48.724;9.104;2023-04-01T19:18:34;2.13;;;0.52;;
75634;SDS011;64227;48.724;9.104;2023-04-01T19:21:10;0.45;;;0.40;;
75634;SDS011;64227;48.724;9.104;2023-04-01T19:32:37;0.30;;;0.30;;
75634;SDS011;64227;48.724;9.104;2023-04-01T19:35:19;0.85;;;0.43;;
75634;SDS011;64227;48.724;9.104;2023-04-01T19:37:57;0.60;;;0.35;;
75634;SDS011;64227;48.724;9.104;2023-04-01T19:43:15;0.93;;;0.40;;
75634;SDS011;64227;48.724;9.104;2023-04-01T19:45:52;0.60;;;0.20;;
75634;SDS011;64227;48.724;9.104;2023-04-01T19:54:04;1.38;;;0.50;;
75634;SDS011;64227;48.724;9.104;2023-04-01T19:56:39;2.55;;;1.75;;
75634;SDS011;64227;48.724;9.104;2023-04-01T20:02:13;1.63;;;0.85;;
75634;SDS011;64227;48.724;9.104;2023-04-01T20:04:53;1.80;;;0.80;;
75634;SDS011;64227;48.724;9.104;2023-04-01T20:07:22;3.58;;;1.30;;
75634;SDS011;64227;48.724;9.104;2023-04-01T20:12:54;167.15;;;51.88;;
75634;SDS011;64227;48.724;9.104;2023-04-01T20:15:41;183.27;;;61.63;;
75634;SDS011;64227;48.724;9.104;2023-04-01T20:18:18;213.30;;;68.15;;
75634;SDS011;64227;48.724;9.104;2023-04-01T20:21:02;345.67;;;113.47;;
75634;SDS011;64227;48.724;9.104;2023-04-01T20:23:39;135.45;;;46.63;;
75634;SDS011;64227;48.724;9.104;2023-04-01T20:26:09;52.33;;;14.98;;
75634;SDS011;64227;48.724;9.104;2023-04-01T20:29:38;6.28;;;3.20;;
75634;SDS011;64227;48.724;9.104;2023-04-01T20:31:57;1.50;;;1.10;;
75634;SDS011;64227;48.724;9.104;2023-04-01T20:34:44;0.93;;;0.80;;
75634;SDS011;64227;48.724;9.104;2023-04-01T20:37:30;1.52;;;0.80;;
75634;SDS011;64227;48.724;9.104;2023-04-01T20:46:00;1.25;;;1.08;;
75634;SDS011;64227;48.724;9.104;2023-04-01T20:48:48;0.50;;;0.47;;
75634;SDS011;64227;48.724;9.104;2023-04-01T20:51:38;2.90;;;0.43;;
75634;SDS011;64227;48.724;9.104;2023-04-01T20:54:10;1.50;;;0.70;;
75634;SDS011;64227;48.724;9.104;2023-04-01T21:00:02;0.43;;;0.38;;
75634;SDS011;64227;48.724;9.104;2023-04-01T21:02:47;0.73;;;0.57;;
75634;SDS011;64227;48.724;9.104;2023-04-01T21:10:56;0.85;;;0.75;;
75634;SDS011;64227;48.724;9.104;2023-04-01T21:21:26;0.82;;;0.40;;
75634;SDS011;64227;48.724;9.104;2023-04-01T21:48:34;1.30;;;0.30;;
75634;SDS011;64227;48.724;9.104;2023-04-01T21:54:08;0.68;;;0.40;;
75634;SDS011;64227;48.724;9.104;2023-04-01T22:07:45;0.40;;;0.30;;
75634;SDS011;64227;48.724;9.104;2023-04-01T22:13:14;0.60;;;0.40;;
75634;SDS011;64227;48.724;9.104;2023-04-01T22:18:21;0.52;;;0.40;;
75634;SDS011;64227;48.724;9.104;2023-04-01T22:20:57;0.32;;;0.32;;
75634;SDS011;64227;48.724;9.104;2023-04-01T22:23:40;0.77;;;0.40;;
75634;SDS011;64227;48.724;9.104;2023-04-01T22:26:18;0.73;;;0.40;;
75634;SDS011;64227;48.724;9.104;2023-04-01T22:28:54;0.35;;;0.20;;
75634;SDS011;64227;48.724;9.104;2023-04-01T22:31:23;0.95;;;0.32;;
75634;SDS011;64227;48.724;9.104;2023-04-01T22:34:05;0.30;;;0.20;;
75634;SDS011;64227;48.724;9.104;2023-04-01T22:42:25;0.50;;;0.35;;
75634;SDS011;64227;48.724;9.104;2023-04-01T22:50:11;0.20;;;0.20;;
75634;SDS011;64227;48.724;9.104;2023-04-01T22:52:42;1.08;;;0.30;;
75634;SDS011;64227;48.724;9.104;2023-04-01T22:57:52;1.40;;;0.20;;
75634;SDS011;64227;48.724;9.104;2023-04-01T23:00:23;0.35;;;0.20;;
75634;SDS011;64227;48.724;9.104;2023-04-01T23:05:55;0.40;;;0.38;;
75634;SDS011;64227;48.724;9.104;2023-04-01T23:11:19;0.63;;;0.25;;
75634;SDS011;64227;48.724;9.104;2023-04-01T23:13:47;0.17;;;0.13;;
75634;SDS011;64227;48.724;9.104;2023-04-01T23:16:18;0.68;;;0.30;;
75634;SDS011;64227;48.724;9.104;2023-04-01T23:18:50;0.47;;;0.30;;
75634;SDS011;64227;48.724;9.104;2023-04-01T23:21:26;0.20;;;0.20;;
75634;SDS011;64227;48.724;9.104;2023-04-01T23:26:35;4.57;;;2.20;;
75634;SDS011;64227;48.724;9.104;2023-04-01T23:29:03;2.70;;;0.80;;
75634;SDS011;64227;48.724;9.104;2023-04-01T23:31:36;0.57;;;0.40;;
75634;SDS011;64227;48.724;9.104;2023-04-01T23:34:48;0.60;;;0.30;;
75634;SDS011;64227;48.724;9.104;2023-04-01T23:36:53;0.28;;;0.28;;
75634;SDS011;64227;48.724;9.104;2023-04-01T23:39:40;0.20;;;0.20;;
75634;SDS011;64227;48.724;9.104;2023-04-01T23:44:51;1.45;;;0.20;;
75634;SDS011;64227;48.724;9.104;2023-04-01T23:47:22;0.32;;;0.20;;
75634;SDS011;64227;48.724;9.104;2023-04-01T23:52:23;0.80;;;0.30;;
75634;SDS011;64227;48.724;9.104;2023-04-01T23:54:53;1.02;;;0.30;;
75634;SDS011;64227;48.724;9.104;2023-04-01T23:57:24;0.32;;;0.20;;
